createdAt,value
2022-08-03T01:59:18.695Z,997.85
2022-08-03T02:04:17.642Z,997.84
2022-08-03T02:09:17.346Z,997.88
2022-08-03T02:14:17.221Z,997.84
2022-08-03T02:19:17.268Z,997.84
2022-08-03T02:24:17.099Z,997.82
2022-08-03T02:29:17.058Z,997.78
2022-08-03T02:34:16.990Z,997.78
2022-08-03T02:39:16.948Z,997.81
2022-08-03T02:44:16.836Z,997.85
2022-08-03T02:49:42.709Z,997.88
2022-08-03T02:54:17.717Z,997.87
2022-08-03T02:59:16.753Z,997.82
2022-08-03T03:04:16.602Z,997.74
2022-08-03T03:09:18.023Z,997.76
2022-08-03T03:14:16.455Z,997.71
2022-08-03T03:19:17.663Z,997.68
2022-08-03T03:24:16.370Z,997.71
2022-08-03T03:29:16.255Z,997.70
2022-08-03T03:34:16.408Z,997.73
2022-08-03T03:39:16.278Z,997.72
2022-08-03T03:44:16.254Z,997.73
2022-08-03T03:49:19.062Z,997.71
2022-08-03T03:54:15.935Z,997.76
2022-08-03T03:59:15.861Z,997.73
2022-08-03T04:04:15.775Z,997.71
2022-08-03T04:09:15.789Z,997.74
2022-08-03T04:14:15.949Z,997.65
2022-08-03T04:19:22.923Z,997.66
2022-08-03T04:24:16.545Z,997.72
2022-08-03T04:29:15.495Z,997.69
2022-08-03T04:34:15.420Z,997.65
2022-08-03T04:39:15.650Z,997.68
2022-08-03T04:44:15.245Z,997.64
2022-08-03T04:49:18.626Z,997.67
2022-08-03T04:54:15.168Z,997.66
2022-08-03T04:59:15.598Z,997.68
2022-08-03T05:04:15.073Z,997.65
2022-08-03T05:09:14.997Z,997.61
2022-08-03T05:14:15.889Z,997.61
2022-08-03T05:19:14.918Z,997.58
2022-08-03T05:24:17.618Z,997.60
2022-08-03T05:29:14.653Z,997.54
2022-08-03T05:34:14.934Z,997.52
2022-08-03T05:39:14.638Z,997.47
2022-08-03T05:44:14.608Z,997.44
2022-08-03T05:49:17.585Z,997.48
2022-08-03T05:54:22.269Z,997.47
2022-08-03T05:59:36.907Z,997.45
2022-08-03T06:04:15.271Z,997.47
2022-08-03T06:09:14.139Z,997.41
2022-08-03T06:14:14.618Z,997.40
2022-08-03T06:19:14.189Z,997.40
2022-08-03T06:24:13.982Z,997.37
2022-08-03T06:29:23.253Z,997.34
2022-08-03T06:34:33.671Z,997.31
2022-08-03T06:39:14.854Z,997.35
2022-08-03T06:44:13.815Z,997.33
2022-08-03T06:49:17.219Z,997.32
2022-08-03T06:55:31.332Z,997.27
2022-08-03T07:00:31.133Z,997.21
2022-08-03T07:05:31.223Z,997.18
2022-08-03T07:10:30.993Z,997.17
2022-08-03T07:15:53.754Z,997.15
2022-08-03T07:20:32.723Z,997.13
2022-08-03T07:25:30.770Z,997.12
2022-08-03T07:30:33.813Z,997.11
2022-08-03T07:35:30.731Z,997.08
2022-08-03T07:40:31.840Z,996.94
2022-08-03T07:45:33.643Z,996.88
2022-08-03T07:50:30.537Z,996.76
2022-08-03T08:06:26.817Z,996.53
2022-08-03T08:11:06.039Z,996.43
2022-08-03T08:16:05.757Z,996.40
2022-08-03T08:21:05.671Z,996.40
2022-08-03T08:26:05.699Z,996.34
2022-08-03T08:31:05.570Z,996.42
2022-08-03T08:36:08.367Z,996.45
2022-08-03T08:41:05.743Z,996.41
2022-08-03T08:46:05.521Z,996.47
2022-08-03T08:51:13.261Z,996.59
2022-08-03T08:56:16.030Z,996.55
2022-08-03T09:01:05.339Z,996.58
2022-08-03T09:06:05.243Z,996.58
2022-08-03T09:11:05.067Z,996.54
2022-08-03T09:16:05.113Z,996.55
2022-08-03T09:21:24.256Z,996.53
2022-08-03T09:26:05.957Z,996.53
2022-08-03T09:31:04.880Z,996.50
2022-08-03T09:36:05.099Z,996.54
2022-08-03T09:41:05.116Z,996.48
2022-08-03T09:46:07.124Z,996.49
2022-08-03T09:51:14.242Z,996.40
2022-08-03T09:56:36.361Z,996.41
2022-08-03T10:01:05.743Z,996.35
2022-08-03T10:06:04.665Z,996.26
2022-08-03T10:11:04.317Z,996.30
2022-08-03T10:16:23.611Z,996.24
2022-08-03T10:21:05.286Z,996.13
2022-08-03T10:26:04.167Z,996.15
2022-08-03T10:31:04.105Z,996.13
2022-08-03T10:36:03.985Z,996.07
2022-08-03T10:41:03.965Z,996.05
2022-08-03T10:46:03.956Z,995.96
2022-08-03T10:51:05.471Z,995.94
2022-08-03T10:56:06.768Z,995.92
2022-08-03T11:01:03.737Z,995.87
2022-08-03T11:06:11.436Z,995.83
2022-08-03T11:11:11.088Z,995.79
2022-08-03T11:16:18.298Z,995.75
2022-08-03T11:22:15.048Z,995.79
2022-08-03T11:27:15.215Z,995.72
2022-08-03T11:32:19.409Z,995.67
2022-08-03T11:37:14.866Z,995.60
2022-08-03T11:42:14.851Z,995.56
2022-08-03T11:47:14.696Z,995.57
2022-08-03T11:52:16.240Z,995.57
2022-08-03T11:57:14.648Z,995.47
2022-08-03T12:02:14.787Z,995.45
2022-08-03T12:07:24.399Z,995.45
2022-08-03T12:12:18.475Z,995.34
2022-08-03T12:17:14.283Z,995.32
2022-08-03T12:22:14.278Z,995.27
2022-08-03T12:27:14.158Z,995.27
2022-08-03T12:32:14.206Z,995.12
2022-08-03T12:37:28.999Z,995.08
2022-08-03T12:42:15.165Z,995.06
2022-08-03T12:47:14.351Z,995.02
2022-08-03T12:52:13.914Z,995.00
2022-08-03T12:57:15.924Z,994.94
2022-08-03T13:02:15.508Z,994.92
2022-08-03T13:07:17.993Z,994.88
2022-08-03T13:12:16.973Z,994.78
2022-08-03T13:17:13.965Z,994.75
2022-08-03T13:22:13.523Z,994.75
2022-08-03T13:28:01.270Z,994.79
2022-08-03T13:32:14.526Z,994.71
2022-08-03T13:37:13.447Z,994.73
2022-08-03T13:42:13.252Z,994.67
2022-08-03T13:47:13.408Z,994.54
2022-08-03T13:52:13.125Z,994.49
2022-08-03T13:58:03.026Z,994.49
2022-08-03T14:02:14.205Z,994.39
2022-08-03T14:07:13.043Z,994.31
2022-08-03T14:12:18.021Z,994.33
2022-08-03T14:17:12.760Z,994.37
2022-08-03T14:47:06.154Z,994.19
2022-08-03T14:52:06.051Z,994.21
2022-08-03T14:57:06.064Z,994.19
2022-08-03T15:02:08.839Z,994.15
2022-08-03T15:07:08.038Z,994.15
2022-08-03T15:12:05.882Z,994.12
2022-08-03T15:17:07.048Z,994.06
2022-08-03T15:22:05.712Z,994.03
2022-08-03T15:27:06.218Z,993.96
2022-08-03T15:32:09.218Z,993.90
2022-08-03T15:37:15.067Z,993.81
2022-08-03T15:42:06.489Z,993.89
2022-08-03T15:47:05.503Z,993.92
2022-08-03T15:52:05.315Z,993.80
2022-08-03T15:57:05.314Z,993.92
2022-08-03T16:02:05.284Z,993.89
2022-08-03T16:07:05.134Z,993.99
2022-08-03T16:12:05.104Z,993.87
2022-08-03T16:17:06.136Z,993.88
2022-08-03T16:22:05.367Z,993.80
2022-08-03T16:27:05.802Z,993.87
2022-08-03T16:32:09.026Z,993.87
2022-08-03T16:37:35.725Z,993.91
2022-08-03T16:42:05.869Z,993.91
2022-08-03T16:47:04.631Z,993.90
2022-08-03T16:52:04.592Z,993.89
2022-08-03T19:30:03.714Z,994.84
2022-08-03T19:34:59.468Z,994.91
2022-08-03T19:39:59.502Z,994.90
2022-08-03T19:44:58.942Z,994.91
2022-08-03T19:50:10.319Z,994.95
2022-08-03T19:54:59.884Z,994.98
2022-08-03T19:59:58.976Z,995.03
2022-08-03T20:04:59.981Z,994.99
2022-08-03T20:09:58.559Z,995.08
2022-08-03T20:14:58.544Z,995.07
2022-08-03T20:20:01.483Z,995.07
2022-08-03T20:24:58.354Z,995.11
2022-08-03T20:30:06.689Z,995.13
2022-08-03T20:35:01.423Z,995.09
2022-08-03T20:39:58.452Z,995.14
2022-08-03T20:45:06.078Z,995.14
2022-08-03T20:49:59.044Z,995.22
2022-08-03T20:54:58.053Z,995.22
2022-08-03T20:59:57.972Z,995.18
2022-08-03T21:04:57.923Z,995.09
2022-08-03T21:09:58.100Z,995.17
2022-08-03T21:14:57.782Z,995.16
2022-08-03T21:20:00.726Z,995.13
2022-08-03T21:24:57.687Z,995.16
2022-08-03T21:29:57.755Z,995.19
2022-08-03T21:34:57.518Z,995.17
2022-08-03T21:39:59.800Z,995.10
2022-08-03T21:44:57.435Z,995.18
2022-08-03T21:50:07.264Z,995.15
2022-08-03T21:54:58.277Z,995.12
2022-08-03T21:59:57.223Z,995.16
2022-08-03T22:04:57.528Z,995.18
2022-08-03T22:09:57.117Z,995.13
2022-08-03T22:15:01.144Z,995.19
2022-08-03T22:19:59.884Z,995.21
2022-08-03T22:24:56.989Z,995.16
2022-08-03T22:29:56.799Z,995.14
2022-08-03T22:34:56.920Z,995.18
2022-08-03T22:50:34.121Z,995.23
2022-08-03T22:55:32.942Z,995.23
2022-08-03T23:00:32.846Z,995.25
2022-08-03T23:06:01.866Z,995.24
2022-08-03T23:10:44.849Z,995.32
2022-08-03T23:15:40.368Z,995.34
2022-08-03T23:20:32.505Z,995.30
2022-08-03T23:25:32.454Z,995.29
2022-08-03T23:30:32.382Z,995.34
2022-08-03T23:36:29.665Z,995.35
2022-08-03T23:40:36.272Z,995.36
